sensor_id;sensor_type;location;lat;lon;timestamp;P1;durP1;ratioP1;P2;durP2;ratioP2
78489;SDS011;67776;52.012;4.736;2024-03-23T00:52:52;15.15;;;4.50;;
78489;SDS011;67776;52.012;4.736;2024-03-23T00:55:18;19.48;;;4.93;;
78489;SDS011;67776;52.012;4.736;2024-03-23T00:57:43;13.63;;;4.20;;
78489;SDS011;67776;52.012;4.736;2024-03-23T01:00:09;16.40;;;3.83;;
78489;SDS011;67776;52.012;4.736;2024-03-23T01:02:35;16.55;;;4.72;;
78489;SDS011;67776;52.012;4.736;2024-03-23T01:05:01;17.50;;;4.20;;
78489;SDS011;67776;52.012;4.736;2024-03-23T01:07:26;15.17;;;4.33;;
78489;SDS011;67776;52.012;4.736;2024-03-23T01:09:51;17.07;;;4.23;;
78489;SDS011;67776;52.012;4.736;2024-03-23T01:12:18;18.95;;;4.03;;
78489;SDS011;67776;52.012;4.736;2024-03-23T01:14:43;15.37;;;3.83;;
78489;SDS011;67776;52.012;4.736;2024-03-23T01:17:09;15.98;;;3.90;;
78489;SDS011;67776;52.012;4.736;2024-03-23T01:19:34;15.90;;;4.30;;
78489;SDS011;67776;52.012;4.736;2024-03-23T01:21:59;27.83;;;4.10;;
78489;SDS011;67776;52.012;4.736;2024-03-23T01:24:25;15.93;;;3.70;;
78489;SDS011;67776;52.012;4.736;2024-03-23T01:26:50;14.77;;;4.03;;
78489;SDS011;67776;52.012;4.736;2024-03-23T01:29:15;16.73;;;3.83;;
78489;SDS011;67776;52.012;4.736;2024-03-23T01:31:41;19.40;;;3.92;;
78489;SDS011;67776;52.012;4.736;2024-03-23T01:34:06;14.33;;;3.37;;
78489;SDS011;67776;52.012;4.736;2024-03-23T01:36:31;16.27;;;3.80;;
78489;SDS011;67776;52.012;4.736;2024-03-23T01:38:57;20.60;;;3.87;;
78489;SDS011;67776;52.012;4.736;2024-03-23T01:41:23;12.53;;;3.80;;
78489;SDS011;67776;52.012;4.736;2024-03-23T01:43:49;17.52;;;4.50;;
78489;SDS011;67776;52.012;4.736;2024-03-23T01:46:14;15.67;;;3.70;;
78489;SDS011;67776;52.012;4.736;2024-03-23T01:48:40;13.07;;;3.90;;
78489;SDS011;67776;52.012;4.736;2024-03-23T01:51:05;16.23;;;3.50;;
78489;SDS011;67776;52.012;4.736;2024-03-23T01:53:31;23.48;;;3.95;;
78489;SDS011;67776;52.012;4.736;2024-03-23T01:55:56;13.40;;;3.27;;
78489;SDS011;67776;52.012;4.736;2024-03-23T01:58:23;14.05;;;3.42;;
78489;SDS011;67776;52.012;4.736;2024-03-23T02:00:48;16.63;;;3.63;;
78489;SDS011;67776;52.012;4.736;2024-03-23T02:03:27;12.27;;;3.40;;
78489;SDS011;67776;52.012;4.736;2024-03-23T02:05:53;14.57;;;3.50;;
78489;SDS011;67776;52.012;4.736;2024-03-23T02:08:20;15.57;;;3.03;;
78489;SDS011;67776;52.012;4.736;2024-03-23T02:10:46;13.00;;;3.33;;
78489;SDS011;67776;52.012;4.736;2024-03-23T02:13:14;13.48;;;3.17;;
78489;SDS011;67776;52.012;4.736;2024-03-23T02:15:39;14.87;;;2.80;;
78489;SDS011;67776;52.012;4.736;2024-03-23T02:18:04;16.03;;;2.50;;
78489;SDS011;67776;52.012;4.736;2024-03-23T02:20:32;8.77;;;2.30;;
78489;SDS011;67776;52.012;4.736;2024-03-23T02:22:58;17.20;;;2.43;;
78489;SDS011;67776;52.012;4.736;2024-03-23T02:25:24;14.32;;;2.28;;
78489;SDS011;67776;52.012;4.736;2024-03-23T02:27:49;13.87;;;2.33;;
78489;SDS011;67776;52.012;4.736;2024-03-23T02:30:14;12.30;;;1.67;;
78489;SDS011;67776;52.012;4.736;2024-03-23T02:32:40;12.57;;;1.70;;
78489;SDS011;67776;52.012;4.736;2024-03-23T02:35:05;12.93;;;1.83;;
78489;SDS011;67776;52.012;4.736;2024-03-23T02:37:31;9.97;;;1.73;;
78489;SDS011;67776;52.012;4.736;2024-03-23T02:39:57;8.50;;;1.63;;
78489;SDS011;67776;52.012;4.736;2024-03-23T02:42:23;12.05;;;1.75;;
78489;SDS011;67776;52.012;4.736;2024-03-23T02:44:48;15.70;;;2.73;;
78489;SDS011;67776;52.012;4.736;2024-03-23T02:47:14;13.20;;;1.80;;
78489;SDS011;67776;52.012;4.736;2024-03-23T02:49:39;13.87;;;2.00;;
78489;SDS011;67776;52.012;4.736;2024-03-23T02:52:04;11.67;;;1.90;;
78489;SDS011;67776;52.012;4.736;2024-03-23T02:54:29;10.33;;;1.80;;
78489;SDS011;67776;52.012;4.736;2024-03-23T02:56:55;12.63;;;2.50;;
78489;SDS011;67776;52.012;4.736;2024-03-23T02:59:20;12.37;;;2.67;;
78489;SDS011;67776;52.012;4.736;2024-03-23T03:01:46;11.77;;;1.60;;
78489;SDS011;67776;52.012;4.736;2024-03-23T03:04:11;12.43;;;1.60;;
78489;SDS011;67776;52.012;4.736;2024-03-23T03:06:36;12.83;;;2.33;;
78489;SDS011;67776;52.012;4.736;2024-03-23T03:09:02;10.90;;;2.00;;
78489;SDS011;67776;52.012;4.736;2024-03-23T03:11:27;12.83;;;2.20;;
78489;SDS011;67776;52.012;4.736;2024-03-23T03:13:52;10.77;;;1.77;;
78489;SDS011;67776;52.012;4.736;2024-03-23T03:16:18;9.43;;;1.93;;
78489;SDS011;67776;52.012;4.736;2024-03-23T03:18:43;14.80;;;2.33;;
78489;SDS011;67776;52.012;4.736;2024-03-23T03:21:11;10.23;;;2.00;;
78489;SDS011;67776;52.012;4.736;2024-03-23T03:23:37;17.13;;;2.40;;
78489;SDS011;67776;52.012;4.736;2024-03-23T03:26:03;8.38;;;1.67;;
78489;SDS011;67776;52.012;4.736;2024-03-23T03:28:28;12.38;;;1.90;;
78489;SDS011;67776;52.012;4.736;2024-03-23T03:30:56;12.73;;;3.00;;
78489;SDS011;67776;52.012;4.736;2024-03-23T03:33:22;9.85;;;1.83;;
78489;SDS011;67776;52.012;4.736;2024-03-23T03:35:47;11.77;;;1.90;;
78489;SDS011;67776;52.012;4.736;2024-03-23T03:38:12;11.77;;;1.90;;
78489;SDS011;67776;52.012;4.736;2024-03-23T03:40:38;10.23;;;2.00;;
78489;SDS011;67776;52.012;4.736;2024-03-23T03:43:03;11.27;;;2.27;;
78489;SDS011;67776;52.012;4.736;2024-03-23T03:45:29;9.17;;;1.67;;
78489;SDS011;67776;52.012;4.736;2024-03-23T03:47:54;14.52;;;2.30;;
78489;SDS011;67776;52.012;4.736;2024-03-23T03:50:19;11.67;;;2.17;;
78489;SDS011;67776;52.012;4.736;2024-03-23T03:52:46;9.80;;;1.63;;
78489;SDS011;67776;52.012;4.736;2024-03-23T03:55:12;16.40;;;2.25;;
78489;SDS011;67776;52.012;4.736;2024-03-23T03:57:39;11.87;;;2.40;;
78489;SDS011;67776;52.012;4.736;2024-03-23T04:00:05;9.63;;;1.95;;
78489;SDS011;67776;52.012;4.736;2024-03-23T04:02:31;9.37;;;1.67;;
78489;SDS011;67776;52.012;4.736;2024-03-23T04:04:56;9.10;;;1.90;;
78489;SDS011;67776;52.012;4.736;2024-03-23T04:07:22;14.90;;;1.90;;
78489;SDS011;67776;52.012;4.736;2024-03-23T04:09:48;11.87;;;1.90;;
78489;SDS011;67776;52.012;4.736;2024-03-23T04:12:14;13.70;;;1.80;;
78489;SDS011;67776;52.012;4.736;2024-03-23T04:14:40;9.27;;;1.55;;
78489;SDS011;67776;52.012;4.736;2024-03-23T04:17:05;11.10;;;2.07;;
78489;SDS011;67776;52.012;4.736;2024-03-23T04:19:30;8.10;;;1.47;;
78489;SDS011;67776;52.012;4.736;2024-03-23T04:21:55;8.47;;;1.50;;
78489;SDS011;67776;52.012;4.736;2024-03-23T04:24:21;14.87;;;1.60;;
78489;SDS011;67776;52.012;4.736;2024-03-23T04:26:47;11.73;;;2.00;;
78489;SDS011;67776;52.012;4.736;2024-03-23T04:29:13;7.47;;;1.47;;
78489;SDS011;67776;52.012;4.736;2024-03-23T04:31:38;10.23;;;1.27;;
78489;SDS011;67776;52.012;4.736;2024-03-23T04:34:04;13.57;;;1.87;;
78489;SDS011;67776;52.012;4.736;2024-03-23T04:36:29;14.37;;;2.20;;
78489;SDS011;67776;52.012;4.736;2024-03-23T04:38:56;9.00;;;1.50;;
78489;SDS011;67776;52.012;4.736;2024-03-23T04:41:22;10.73;;;1.60;;
78489;SDS011;67776;52.012;4.736;2024-03-23T04:43:47;9.87;;;1.60;;
78489;SDS011;67776;52.012;4.736;2024-03-23T04:46:12;8.85;;;1.40;;
78489;SDS011;67776;52.012;4.736;2024-03-23T04:48:38;9.87;;;1.80;;
78489;SDS011;67776;52.012;4.736;2024-03-23T04:51:03;11.90;;;2.03;;
78489;SDS011;67776;52.012;4.736;2024-03-23T04:53:29;7.47;;;1.57;;
78489;SDS011;67776;52.012;4.736;2024-03-23T04:55:55;10.73;;;1.70;;
78489;SDS011;67776;52.012;4.736;2024-03-23T04:58:22;9.45;;;1.65;;
78489;SDS011;67776;52.012;4.736;2024-03-23T05:00:48;7.07;;;1.63;;
78489;SDS011;67776;52.012;4.736;2024-03-23T05:03:17;10.10;;;1.75;;
78489;SDS011;67776;52.012;4.736;2024-03-23T05:05:44;10.38;;;1.88;;
78489;SDS011;67776;52.012;4.736;2024-03-23T05:08:09;14.97;;;2.07;;
78489;SDS011;67776;52.012;4.736;2024-03-23T05:10:35;13.40;;;1.70;;
78489;SDS011;67776;52.012;4.736;2024-03-23T05:13:00;10.23;;;1.77;;
78489;SDS011;67776;52.012;4.736;2024-03-23T05:15:26;10.48;;;1.95;;
78489;SDS011;67776;52.012;4.736;2024-03-23T05:17:52;8.10;;;1.50;;
78489;SDS011;67776;52.012;4.736;2024-03-23T05:20:17;13.47;;;1.83;;
78489;SDS011;67776;52.012;4.736;2024-03-23T05:22:44;7.15;;;1.58;;
78489;SDS011;67776;52.012;4.736;2024-03-23T05:25:09;11.77;;;2.07;;
78489;SDS011;67776;52.012;4.736;2024-03-23T05:27:35;6.80;;;1.70;;
78489;SDS011;67776;52.012;4.736;2024-03-23T05:30:01;17.02;;;2.30;;
78489;SDS011;67776;52.012;4.736;2024-03-23T05:32:26;10.17;;;1.90;;
78489;SDS011;67776;52.012;4.736;2024-03-23T05:34:53;11.53;;;2.17;;
78489;SDS011;67776;52.012;4.736;2024-03-23T05:37:21;10.18;;;1.77;;
78489;SDS011;67776;52.012;4.736;2024-03-23T05:39:47;10.20;;;2.15;;
78489;SDS011;67776;52.012;4.736;2024-03-23T05:42:15;12.32;;;2.28;;
78489;SDS011;67776;52.012;4.736;2024-03-23T05:44:42;12.70;;;1.80;;
78489;SDS011;67776;52.012;4.736;2024-03-23T05:47:11;14.47;;;2.57;;
78489;SDS011;67776;52.012;4.736;2024-03-23T05:49:41;14.52;;;2.30;;
78489;SDS011;67776;52.012;4.736;2024-03-23T05:52:07;8.63;;;2.10;;
78489;SDS011;67776;52.012;4.736;2024-03-23T05:54:35;11.48;;;2.15;;
78489;SDS011;67776;52.012;4.736;2024-03-23T05:57:01;11.13;;;2.27;;
78489;SDS011;67776;52.012;4.736;2024-03-23T05:59:26;12.47;;;2.13;;
78489;SDS011;67776;52.012;4.736;2024-03-23T06:01:52;10.27;;;2.30;;
78489;SDS011;67776;52.012;4.736;2024-03-23T06:04:17;10.83;;;2.73;;
78489;SDS011;67776;52.012;4.736;2024-03-23T06:06:43;14.30;;;2.53;;
78489;SDS011;67776;52.012;4.736;2024-03-23T06:09:08;10.47;;;2.37;;
78489;SDS011;67776;52.012;4.736;2024-03-23T06:11:33;14.47;;;2.57;;
78489;SDS011;67776;52.012;4.736;2024-03-23T06:13:59;12.98;;;2.80;;
78489;SDS011;67776;52.012;4.736;2024-03-23T06:16:24;11.90;;;2.90;;
78489;SDS011;67776;52.012;4.736;2024-03-23T06:18:52;13.97;;;2.47;;
78489;SDS011;67776;52.012;4.736;2024-03-23T06:21:18;10.77;;;2.83;;
78489;SDS011;67776;52.012;4.736;2024-03-23T06:23:44;15.90;;;2.67;;
78489;SDS011;67776;52.012;4.736;2024-03-23T06:26:17;11.48;;;2.92;;
78489;SDS011;67776;52.012;4.736;2024-03-23T06:28:43;10.55;;;2.70;;
78489;SDS011;67776;52.012;4.736;2024-03-23T06:31:11;12.53;;;2.87;;
78489;SDS011;67776;52.012;4.736;2024-03-23T06:33:37;12.00;;;2.50;;
78489;SDS011;67776;52.012;4.736;2024-03-23T06:36:03;12.82;;;2.53;;
78489;SDS011;67776;52.012;4.736;2024-03-23T06:38:29;9.63;;;2.50;;
78489;SDS011;67776;52.012;4.736;2024-03-23T06:40:55;11.70;;;2.47;;
78489;SDS011;67776;52.012;4.736;2024-03-23T06:43:20;12.60;;;2.73;;
78489;SDS011;67776;52.012;4.736;2024-03-23T06:45:52;10.43;;;2.60;;
78489;SDS011;67776;52.012;4.736;2024-03-23T06:48:20;10.23;;;2.35;;
78489;SDS011;67776;52.012;4.736;2024-03-23T06:50:46;11.38;;;2.20;;
78489;SDS011;67776;52.012;4.736;2024-03-23T06:53:12;10.03;;;2.33;;
78489;SDS011;67776;52.012;4.736;2024-03-23T06:55:37;9.40;;;2.25;;
78489;SDS011;67776;52.012;4.736;2024-03-23T06:58:03;8.70;;;2.17;;
78489;SDS011;67776;52.012;4.736;2024-03-23T07:00:29;14.15;;;2.42;;
78489;SDS011;67776;52.012;4.736;2024-03-23T07:02:54;11.40;;;2.10;;
78489;SDS011;67776;52.012;4.736;2024-03-23T07:05:21;13.65;;;2.38;;
78489;SDS011;67776;52.012;4.736;2024-03-23T07:07:46;7.63;;;1.90;;
78489;SDS011;67776;52.012;4.736;2024-03-23T07:10:12;6.63;;;1.80;;
78489;SDS011;67776;52.012;4.736;2024-03-23T07:12:37;10.80;;;1.97;;
78489;SDS011;67776;52.012;4.736;2024-03-23T07:15:02;14.07;;;2.10;;
78489;SDS011;67776;52.012;4.736;2024-03-23T07:17:28;9.27;;;2.17;;
78489;SDS011;67776;52.012;4.736;2024-03-23T07:19:53;10.13;;;1.80;;
78489;SDS011;67776;52.012;4.736;2024-03-23T07:22:19;11.65;;;1.95;;
78489;SDS011;67776;52.012;4.736;2024-03-23T07:24:44;13.37;;;2.20;;
78489;SDS011;67776;52.012;4.736;2024-03-23T07:27:09;9.97;;;2.00;;
78489;SDS011;67776;52.012;4.736;2024-03-23T07:29:35;14.17;;;1.90;;
78489;SDS011;67776;52.012;4.736;2024-03-23T07:32:01;10.95;;;2.10;;
78489;SDS011;67776;52.012;4.736;2024-03-23T07:34:26;9.23;;;2.30;;
78489;SDS011;67776;52.012;4.736;2024-03-23T07:36:51;9.60;;;2.17;;
78489;SDS011;67776;52.012;4.736;2024-03-23T07:39:17;7.77;;;1.57;;
78489;SDS011;67776;52.012;4.736;2024-03-23T07:41:44;14.17;;;2.50;;
78489;SDS011;67776;52.012;4.736;2024-03-23T07:44:10;10.55;;;2.03;;
78489;SDS011;67776;52.012;4.736;2024-03-23T07:46:35;12.97;;;2.77;;
78489;SDS011;67776;52.012;4.736;2024-03-23T07:49:01;9.80;;;2.40;;
78489;SDS011;67776;52.012;4.736;2024-03-23T07:51:26;13.30;;;2.30;;
78489;SDS011;67776;52.012;4.736;2024-03-23T07:53:51;12.03;;;2.13;;
78489;SDS011;67776;52.012;4.736;2024-03-23T07:56:18;11.77;;;2.37;;
78489;SDS011;67776;52.012;4.736;2024-03-23T07:58:47;9.20;;;2.08;;
78489;SDS011;67776;52.012;4.736;2024-03-23T08:01:16;16.43;;;2.67;;
78489;SDS011;67776;52.012;4.736;2024-03-23T08:03:43;17.23;;;2.60;;
78489;SDS011;67776;52.012;4.736;2024-03-23T08:06:16;11.35;;;2.63;;
78489;SDS011;67776;52.012;4.736;2024-03-23T08:08:43;7.82;;;1.60;;
78489;SDS011;67776;52.012;4.736;2024-03-23T08:11:10;8.20;;;1.88;;
78489;SDS011;67776;52.012;4.736;2024-03-23T08:13:35;14.27;;;2.10;;
78489;SDS011;67776;52.012;4.736;2024-03-23T08:16:03;12.40;;;2.15;;
78489;SDS011;67776;52.012;4.736;2024-03-23T08:18:29;10.75;;;1.90;;
78489;SDS011;67776;52.012;4.736;2024-03-23T08:21:02;11.70;;;1.70;;
78489;SDS011;67776;52.012;4.736;2024-03-23T08:23:29;10.65;;;1.45;;
78489;SDS011;67776;52.012;4.736;2024-03-23T08:25:58;9.40;;;1.83;;
78489;SDS011;67776;52.012;4.736;2024-03-23T08:28:28;10.73;;;1.50;;
78489;SDS011;67776;52.012;4.736;2024-03-23T08:30:53;11.60;;;1.90;;
78489;SDS011;67776;52.012;4.736;2024-03-23T08:33:21;13.07;;;2.10;;
78489;SDS011;67776;52.012;4.736;2024-03-23T08:35:56;10.98;;;1.58;;
78489;SDS011;67776;52.012;4.736;2024-03-23T08:38:22;6.85;;;1.50;;
78489;SDS011;67776;52.012;4.736;2024-03-23T08:40:55;14.00;;;2.15;;
78489;SDS011;67776;52.012;4.736;2024-03-23T08:43:22;11.30;;;1.70;;
78489;SDS011;67776;52.012;4.736;2024-03-23T08:45:47;8.17;;;1.50;;
78489;SDS011;67776;52.012;4.736;2024-03-23T08:48:12;12.13;;;2.07;;
78489;SDS011;67776;52.012;4.736;2024-03-23T08:50:38;9.23;;;2.17;;
78489;SDS011;67776;52.012;4.736;2024-03-23T08:53:03;6.30;;;1.50;;
78489;SDS011;67776;52.012;4.736;2024-03-23T08:55:29;8.73;;;1.73;;
78489;SDS011;67776;52.012;4.736;2024-03-23T08:57:54;11.77;;;2.70;;
78489;SDS011;67776;52.012;4.736;2024-03-23T09:00:21;9.77;;;2.20;;
78489;SDS011;67776;52.012;4.736;2024-03-23T09:02:49;12.60;;;1.90;;
78489;SDS011;67776;52.012;4.736;2024-03-23T09:05:15;9.68;;;2.10;;
78489;SDS011;67776;52.012;4.736;2024-03-23T09:07:40;12.00;;;2.00;;
78489;SDS011;67776;52.012;4.736;2024-03-23T09:10:06;12.00;;;2.03;;
78489;SDS011;67776;52.012;4.736;2024-03-23T09:12:32;13.57;;;2.23;;
78489;SDS011;67776;52.012;4.736;2024-03-23T09:14:58;12.38;;;1.92;;
78489;SDS011;67776;52.012;4.736;2024-03-23T09:17:23;8.27;;;1.70;;
78489;SDS011;67776;52.012;4.736;2024-03-23T09:19:48;12.70;;;1.63;;
78489;SDS011;67776;52.012;4.736;2024-03-23T09:22:14;10.83;;;1.80;;
78489;SDS011;67776;52.012;4.736;2024-03-23T09:24:39;13.00;;;1.87;;
78489;SDS011;67776;52.012;4.736;2024-03-23T09:27:05;13.18;;;1.77;;
78489;SDS011;67776;52.012;4.736;2024-03-23T09:29:30;11.13;;;1.43;;
78489;SDS011;67776;52.012;4.736;2024-03-23T09:31:55;12.67;;;2.07;;
78489;SDS011;67776;52.012;4.736;2024-03-23T09:34:21;9.00;;;1.80;;
78489;SDS011;67776;52.012;4.736;2024-03-23T09:36:46;10.90;;;1.80;;
78489;SDS011;67776;52.012;4.736;2024-03-23T09:39:12;11.30;;;1.88;;
78489;SDS011;67776;52.012;4.736;2024-03-23T09:41:38;9.07;;;1.98;;
78489;SDS011;67776;52.012;4.736;2024-03-23T09:44:04;15.83;;;1.80;;
78489;SDS011;67776;52.012;4.736;2024-03-23T09:46:30;10.95;;;2.00;;
78489;SDS011;67776;52.012;4.736;2024-03-23T09:48:59;20.33;;;1.75;;
78489;SDS011;67776;52.012;4.736;2024-03-23T09:51:25;9.95;;;2.10;;
78489;SDS011;67776;52.012;4.736;2024-03-23T09:53:50;10.47;;;1.93;;
78489;SDS011;67776;52.012;4.736;2024-03-23T09:56:18;9.05;;;1.73;;
78489;SDS011;67776;52.012;4.736;2024-03-23T09:58:43;8.73;;;1.60;;
78489;SDS011;67776;52.012;4.736;2024-03-23T10:01:08;10.70;;;2.03;;
78489;SDS011;67776;52.012;4.736;2024-03-23T10:03:46;8.47;;;1.73;;
78489;SDS011;67776;52.012;4.736;2024-03-23T10:06:12;10.70;;;2.03;;
78489;SDS011;67776;52.012;4.736;2024-03-23T10:08:37;9.37;;;1.77;;
78489;SDS011;67776;52.012;4.736;2024-03-23T10:11:12;9.75;;;1.95;;
78489;SDS011;67776;52.012;4.736;2024-03-23T10:13:41;10.40;;;1.50;;
78489;SDS011;67776;52.012;4.736;2024-03-23T10:16:08;12.57;;;2.63;;
78489;SDS011;67776;52.012;4.736;2024-03-23T10:18:36;9.30;;;1.47;;
78489;SDS011;67776;52.012;4.736;2024-03-23T10:26:32;9.55;;;1.75;;
78489;SDS011;67776;52.012;4.736;2024-03-23T10:28:58;8.63;;;2.10;;
78489;SDS011;67776;52.012;4.736;2024-03-23T10:31:29;10.05;;;1.90;;
78489;SDS011;67776;52.012;4.736;2024-03-23T10:33:55;10.63;;;1.90;;
78489;SDS011;67776;52.012;4.736;2024-03-23T10:36:21;9.23;;;1.70;;
78489;SDS011;67776;52.012;4.736;2024-03-23T10:38:49;8.85;;;1.92;;
78489;SDS011;67776;52.012;4.736;2024-03-23T10:41:15;8.77;;;1.60;;
78489;SDS011;67776;52.012;4.736;2024-03-23T10:43:41;8.32;;;1.52;;
78489;SDS011;67776;52.012;4.736;2024-03-23T10:46:09;10.20;;;1.67;;
78489;SDS011;67776;52.012;4.736;2024-03-23T10:48:34;13.70;;;1.60;;
78489;SDS011;67776;52.012;4.736;2024-03-23T10:51:00;10.37;;;1.70;;
78489;SDS011;67776;52.012;4.736;2024-03-23T10:53:26;11.60;;;1.77;;
78489;SDS011;67776;52.012;4.736;2024-03-23T10:55:53;11.03;;;1.70;;
78489;SDS011;67776;52.012;4.736;2024-03-23T10:58:21;7.53;;;1.70;;
78489;SDS011;67776;52.012;4.736;2024-03-23T11:00:51;8.35;;;1.77;;
78489;SDS011;67776;52.012;4.736;2024-03-23T11:03:31;6.60;;;1.58;;
78489;SDS011;67776;52.012;4.736;2024-03-23T11:05:58;9.85;;;2.00;;
78489;SDS011;67776;52.012;4.736;2024-03-23T11:08:57;7.77;;;1.43;;
78489;SDS011;67776;52.012;4.736;2024-03-23T11:11:22;9.65;;;1.67;;
78489;SDS011;67776;52.012;4.736;2024-03-23T11:13:53;11.63;;;1.67;;
78489;SDS011;67776;52.012;4.736;2024-03-23T11:16:23;7.97;;;1.70;;
78489;SDS011;67776;52.012;4.736;2024-03-23T11:18:49;13.13;;;2.03;;
78489;SDS011;67776;52.012;4.736;2024-03-23T11:21:59;9.30;;;1.67;;
78489;SDS011;67776;52.012;4.736;2024-03-23T11:24:17;10.68;;;1.90;;
78489;SDS011;67776;52.012;4.736;2024-03-23T11:26:43;9.07;;;1.73;;
78489;SDS011;67776;52.012;4.736;2024-03-23T11:29:12;10.73;;;1.93;;
78489;SDS011;67776;52.012;4.736;2024-03-23T11:31:39;7.78;;;1.65;;
78489;SDS011;67776;52.012;4.736;2024-03-23T11:34:11;10.57;;;1.60;;
78489;SDS011;67776;52.012;4.736;2024-03-23T11:36:36;13.90;;;2.30;;
78489;SDS011;67776;52.012;4.736;2024-03-23T11:39:11;11.10;;;1.90;;
78489;SDS011;67776;52.012;4.736;2024-03-23T11:41:55;11.45;;;2.42;;
78489;SDS011;67776;52.012;4.736;2024-03-23T11:44:22;9.77;;;1.58;;
78489;SDS011;67776;52.012;4.736;2024-03-23T11:46:50;8.55;;;2.00;;
78489;SDS011;67776;52.012;4.736;2024-03-23T11:51:54;8.45;;;2.13;;
78489;SDS011;67776;52.012;4.736;2024-03-23T11:54:21;11.13;;;1.63;;
78489;SDS011;67776;52.012;4.736;2024-03-23T11:56:54;9.07;;;1.67;;
78489;SDS011;67776;52.012;4.736;2024-03-23T11:59:32;11.73;;;1.77;;
78489;SDS011;67776;52.012;4.736;2024-03-23T12:02:05;8.68;;;1.70;;
78489;SDS011;67776;52.012;4.736;2024-03-23T12:04:40;9.85;;;1.20;;
78489;SDS011;67776;52.012;4.736;2024-03-23T12:07:13;8.27;;;1.67;;
78489;SDS011;67776;52.012;4.736;2024-03-23T12:09:40;7.35;;;1.52;;
78489;SDS011;67776;52.012;4.736;2024-03-23T12:12:10;7.30;;;1.20;;
78489;SDS011;67776;52.012;4.736;2024-03-23T12:14:38;10.40;;;1.90;;
78489;SDS011;67776;52.012;4.736;2024-03-23T12:17:13;7.93;;;1.43;;
78489;SDS011;67776;52.012;4.736;2024-03-23T12:19:39;9.05;;;1.80;;
78489;SDS011;67776;52.012;4.736;2024-03-23T12:22:06;9.60;;;1.30;;
78489;SDS011;67776;52.012;4.736;2024-03-23T12:24:33;11.43;;;1.60;;
78489;SDS011;67776;52.012;4.736;2024-03-23T12:27:02;6.57;;;1.13;;
78489;SDS011;67776;52.012;4.736;2024-03-23T12:29:28;8.70;;;1.40;;
78489;SDS011;67776;52.012;4.736;2024-03-23T12:31:54;7.43;;;1.50;;
78489;SDS011;67776;52.012;4.736;2024-03-23T12:34:20;10.80;;;1.70;;
78489;SDS011;67776;52.012;4.736;2024-03-23T12:36:46;9.30;;;1.60;;
78489;SDS011;67776;52.012;4.736;2024-03-23T12:39:11;9.40;;;1.60;;
78489;SDS011;67776;52.012;4.736;2024-03-23T12:41:36;8.40;;;1.23;;
78489;SDS011;67776;52.012;4.736;2024-03-23T12:44:02;7.90;;;1.53;;
78489;SDS011;67776;52.012;4.736;2024-03-23T12:46:27;6.10;;;1.10;;
78489;SDS011;67776;52.012;4.736;2024-03-23T12:48:52;5.73;;;1.27;;
78489;SDS011;67776;52.012;4.736;2024-03-23T12:51:18;5.90;;;0.90;;
78489;SDS011;67776;52.012;4.736;2024-03-23T12:53:43;6.23;;;0.90;;
78489;SDS011;67776;52.012;4.736;2024-03-23T12:56:11;6.37;;;1.30;;
78489;SDS011;67776;52.012;4.736;2024-03-23T12:58:37;9.25;;;2.20;;
78489;SDS011;67776;52.012;4.736;2024-03-23T13:01:02;10.57;;;2.13;;
78489;SDS011;67776;52.012;4.736;2024-03-23T13:03:28;7.57;;;1.33;;
78489;SDS011;67776;52.012;4.736;2024-03-23T13:05:53;6.90;;;1.38;;
78489;SDS011;67776;52.012;4.736;2024-03-23T13:08:19;7.63;;;1.20;;
78489;SDS011;67776;52.012;4.736;2024-03-23T13:10:44;11.67;;;1.43;;
78489;SDS011;67776;52.012;4.736;2024-03-23T13:13:10;12.07;;;1.80;;
78489;SDS011;67776;52.012;4.736;2024-03-23T13:15:35;10.00;;;1.65;;
78489;SDS011;67776;52.012;4.736;2024-03-23T13:18:00;7.57;;;1.53;;
78489;SDS011;67776;52.012;4.736;2024-03-23T13:20:25;7.03;;;1.30;;
78489;SDS011;67776;52.012;4.736;2024-03-23T13:22:51;8.13;;;2.00;;
78489;SDS011;67776;52.012;4.736;2024-03-23T13:25:17;7.35;;;1.63;;
78489;SDS011;67776;52.012;4.736;2024-03-23T13:27:43;9.85;;;1.70;;
78489;SDS011;67776;52.012;4.736;2024-03-23T13:30:09;12.23;;;2.17;;
78489;SDS011;67776;52.012;4.736;2024-03-23T13:32:35;8.77;;;1.48;;
78489;SDS011;67776;52.012;4.736;2024-03-23T13:35:00;10.67;;;1.90;;
78489;SDS011;67776;52.012;4.736;2024-03-23T13:37:26;7.93;;;1.40;;
78489;SDS011;67776;52.012;4.736;2024-03-23T13:39:51;9.70;;;1.90;;
78489;SDS011;67776;52.012;4.736;2024-03-23T13:42:17;7.73;;;1.67;;
78489;SDS011;67776;52.012;4.736;2024-03-23T13:44:42;8.37;;;1.70;;
78489;SDS011;67776;52.012;4.736;2024-03-23T13:47:08;6.43;;;1.27;;
78489;SDS011;67776;52.012;4.736;2024-03-23T13:49:33;8.10;;;1.37;;
78489;SDS011;67776;52.012;4.736;2024-03-23T13:51:59;7.20;;;1.40;;
78489;SDS011;67776;52.012;4.736;2024-03-23T13:54:25;11.13;;;1.70;;
78489;SDS011;67776;52.012;4.736;2024-03-23T13:56:51;7.95;;;1.30;;
78489;SDS011;67776;52.012;4.736;2024-03-23T13:59:17;7.53;;;1.50;;
78489;SDS011;67776;52.012;4.736;2024-03-23T14:01:43;9.80;;;1.45;;
78489;SDS011;67776;52.012;4.736;2024-03-23T14:04:10;10.73;;;1.60;;
78489;SDS011;67776;52.012;4.736;2024-03-23T14:06:36;6.80;;;1.13;;
78489;SDS011;67776;52.012;4.736;2024-03-23T14:09:01;5.83;;;1.10;;
78489;SDS011;67776;52.012;4.736;2024-03-23T14:11:28;8.05;;;1.00;;
78489;SDS011;67776;52.012;4.736;2024-03-23T14:13:54;3.90;;;0.80;;
78489;SDS011;67776;52.012;4.736;2024-03-23T14:16:19;5.75;;;0.98;;
78489;SDS011;67776;52.012;4.736;2024-03-23T14:18:46;3.53;;;0.65;;
78489;SDS011;67776;52.012;4.736;2024-03-23T14:21:12;6.45;;;1.00;;
78489;SDS011;67776;52.012;4.736;2024-03-23T14:23:37;7.23;;;1.10;;
78489;SDS011;67776;52.012;4.736;2024-03-23T14:26:02;5.77;;;0.70;;
78489;SDS011;67776;52.012;4.736;2024-03-23T14:28:28;4.63;;;0.90;;
78489;SDS011;67776;52.012;4.736;2024-03-23T14:30:55;6.00;;;0.93;;
78489;SDS011;67776;52.012;4.736;2024-03-23T14:33:22;4.95;;;0.90;;
78489;SDS011;67776;52.012;4.736;2024-03-23T14:35:54;7.55;;;1.20;;
78489;SDS011;67776;52.012;4.736;2024-03-23T14:38:23;9.55;;;1.30;;
78489;SDS011;67776;52.012;4.736;2024-03-23T14:40:49;6.33;;;1.40;;
78489;SDS011;67776;52.012;4.736;2024-03-23T14:43:14;7.97;;;1.30;;
78489;SDS011;67776;52.012;4.736;2024-03-23T14:48:41;6.55;;;1.20;;
78489;SDS011;67776;52.012;4.736;2024-03-23T14:51:07;7.13;;;1.20;;
78489;SDS011;67776;52.012;4.736;2024-03-23T14:53:34;5.68;;;1.40;;
78489;SDS011;67776;52.012;4.736;2024-03-23T14:56:01;7.17;;;0.90;;
78489;SDS011;67776;52.012;4.736;2024-03-23T14:58:27;12.00;;;1.60;;
78489;SDS011;67776;52.012;4.736;2024-03-23T15:00:53;11.88;;;1.75;;
78489;SDS011;67776;52.012;4.736;2024-03-23T15:03:18;8.67;;;1.67;;
78489;SDS011;67776;52.012;4.736;2024-03-23T15:05:54;6.18;;;1.40;;
78489;SDS011;67776;52.012;4.736;2024-03-23T15:08:20;6.15;;;1.40;;
78489;SDS011;67776;52.012;4.736;2024-03-23T15:10:45;11.30;;;1.70;;
78489;SDS011;67776;52.012;4.736;2024-03-23T15:13:10;7.63;;;1.50;;
78489;SDS011;67776;52.012;4.736;2024-03-23T15:15:42;8.50;;;1.30;;
78489;SDS011;67776;52.012;4.736;2024-03-23T15:18:14;7.80;;;1.33;;
78489;SDS011;67776;52.012;4.736;2024-03-23T15:20:57;6.43;;;1.10;;
78489;SDS011;67776;52.012;4.736;2024-03-23T15:23:27;7.60;;;1.50;;
78489;SDS011;67776;52.012;4.736;2024-03-23T15:25:55;5.30;;;1.17;;
78489;SDS011;67776;52.012;4.736;2024-03-23T15:28:24;7.93;;;1.20;;
78489;SDS011;67776;52.012;4.736;2024-03-23T15:31:03;9.57;;;1.38;;
78489;SDS011;67776;52.012;4.736;2024-03-23T15:33:29;10.52;;;1.60;;
78489;SDS011;67776;52.012;4.736;2024-03-23T15:35:54;8.93;;;1.27;;
78489;SDS011;67776;52.012;4.736;2024-03-23T15:38:23;8.77;;;1.10;;
78489;SDS011;67776;52.012;4.736;2024-03-23T15:40:52;6.53;;;1.27;;